Time;durP1;ratioP1;P1;durP2;ratioP2;P2;SDS_P1;SDS_P2;PMS_P1;PMS_P2;Temp;Humidity;BMP_temperature;BMP_pressure;BME280_temperature;BME280_humidity;BME280_pressure;Samples;Min_cycle;Max_cycle;Signal;HPM_P1;HPM_P2
2022/07/31 00:01:11;;;;;;;1.48;1.10;;;;;;;21.35;71.83;100235.09;4897152;29;20032;-82
2022/07/31 00:03:36;;;;;;;2.55;1.30;;;;;;;21.40;72.56;100256.44;4891459;29;20076;-82
2022/07/31 00:06:02;;;;;;;2.80;1.20;;;;;;;21.14;73.70;100228.56;4899184;29;20478;-82
2022/07/31 00:08:28;;;;;;;2.70;1.27;;;;;;;21.09;74.27;100238.00;4897817;29;20424;-81
2022/07/31 00:10:53;;;;;;;1.88;1.20;;;;;;;21.00;74.18;100234.09;4896694;29;20029;-82
2022/07/31 00:13:18;;;;;;;2.60;1.25;;;;;;;20.99;74.37;100239.63;4880709;29;20028;-81
2022/07/31 00:15:44;;;;;;;2.10;1.17;;;;;;;20.92;74.32;100244.56;4881887;29;20029;-82
2022/07/31 00:18:10;;;;;;;2.05;1.10;;;;;;;20.93;75.14;100260.69;4898670;29;20028;-81
2022/07/31 00:20:36;;;;;;;4.03;1.42;;;;;;;20.86;76.25;100248.56;4897936;29;20112;-82
2022/07/31 00:23:01;;;;;;;2.67;1.17;;;;;;;20.61;76.52;100213.41;4898468;29;20060;-81
2022/07/31 00:25:27;;;;;;;3.05;1.35;;;;;;;20.61;76.33;100224.22;4898177;29;20437;-81
2022/07/31 00:27:52;;;;;;;2.72;1.25;;;;;;;20.69;76.69;100256.16;4882156;29;20039;-81
2022/07/31 00:30:18;;;;;;;3.97;1.40;;;;;;;20.42;77.26;100225.63;4898739;29;20085;-82
2022/07/31 00:32:44;;;;;;;2.67;1.52;;;;;;;20.37;77.38;100239.47;4882668;29;20032;-82
2022/07/31 00:35:12;;;;;;;2.55;1.50;;;;;;;20.39;78.08;100251.03;4899020;29;20043;-82
2022/07/31 00:37:39;;;;;;;2.47;1.30;;;;;;;20.29;77.95;100246.38;4880708;29;20035;-82
2022/07/31 00:40:06;;;;;;;2.67;1.52;;;;;;;20.21;78.47;100238.81;4880959;29;20044;-82
2022/07/31 00:42:32;;;;;;;2.92;1.67;;;;;;;20.25;78.48;100255.63;4897775;29;20036;-82
2022/07/31 00:44:57;;;;;;;2.30;1.55;;;;;;;20.22;78.03;100258.56;4898620;29;20037;-81
2022/07/31 00:47:23;;;;;;;2.97;1.85;;;;;;;20.12;77.47;100243.91;4879381;29;20097;-81
2022/07/31 00:49:49;;;;;;;6.20;2.03;;;;;;;20.23;77.94;100258.44;4893221;29;20069;-81
2022/07/31 00:52:14;;;;;;;3.28;1.80;;;;;;;20.19;77.41;100262.34;4898619;29;20028;-81
2022/07/31 00:54:39;;;;;;;5.18;1.45;;;;;;;20.03;78.30;100239.16;4897268;29;20088;-82
2022/07/31 00:57:05;;;;;;;3.95;2.58;;;;;;;20.02;78.00;100224.75;4897180;29;20451;-82
2022/07/31 00:59:31;;;;;;;3.67;1.58;;;;;;;20.09;76.96;100246.81;4894109;29;20021;-81
2022/07/31 01:01:58;;;;;;;2.25;1.52;;;;;;;20.18;76.51;100248.94;4895460;29;20025;-82
2022/07/31 01:04:25;;;;;;;4.38;1.35;;;;;;;20.17;76.57;100242.66;4883184;29;20698;-82
2022/07/31 01:06:51;;;;;;;3.15;1.65;;;;;;;20.23;77.27;100268.41;4878772;29;20096;-82
2022/07/31 01:09:17;;;;;;;4.88;1.80;;;;;;;20.15;78.62;100250.00;4877493;29;20045;-82
2022/07/31 01:12:00;;;;;;;3.65;1.70;;;;;;;20.11;79.50;100264.66;4896005;29;20024;-81
2022/07/31 01:14:48;;;;;;;3.60;1.60;;;;;;;19.95;79.81;100263.94;4877381;29;20028;-81
2022/07/31 01:17:16;;;;;;;4.05;1.55;;;;;;;19.84;80.04;100263.81;4894124;29;20115;-83
2022/07/31 01:19:47;;;;;;;2.33;1.42;;;;;;;19.77;81.10;100264.31;4879804;29;20524;-81
2022/07/31 01:22:40;;;;;;;2.25;1.42;;;;;;;19.70;81.26;100260.28;4879940;29;20029;-82
2022/07/31 01:25:14;;;;;;;3.30;1.75;;;;;;;19.67;81.48;100266.75;4896798;29;20060;-81
2022/07/31 01:27:58;;;;;;;3.70;1.40;;;;;;;19.52;82.46;100265.06;4880770;29;20499;-81
2022/07/31 01:30:31;;;;;;;2.53;1.60;;;;;;;19.28;82.37;100239.63;4898172;29;20400;-81
2022/07/31 01:33:01;;;;;;;3.00;1.27;;;;;;;19.37;82.28;100266.06;4898542;29;20033;-82
2022/07/31 01:35:31;;;;;;;2.67;1.70;;;;;;;19.33;82.24;100269.91;4880787;29;20037;-82
2022/07/31 01:38:09;;;;;;;2.97;1.77;;;;;;;19.28;82.86;100272.00;4897944;29;20032;-81
2022/07/31 01:40:44;;;;;;;3.80;1.70;;;;;;;19.23;83.17;100256.13;4885410;29;20032;-81
2022/07/31 01:43:21;;;;;;;2.50;1.67;;;;;;;19.36;82.89;100273.28;4880130;29;20047;-81
2022/07/31 01:45:50;;;;;;;2.28;1.38;;;;;;;19.27;83.71;100257.66;4903561;29;20024;-82
2022/07/31 01:48:16;;;;;;;5.72;2.10;;;;;;;19.29;84.07;100268.38;4916245;29;20031;-82
2022/07/31 01:50:45;;;;;;;2.78;1.65;;;;;;;19.10;84.79;100257.00;4918334;29;20024;-81
2022/07/31 01:53:18;;;;;;;4.25;1.80;;;;;;;19.09;86.25;100260.66;4919064;29;20483;-82
2022/07/31 01:55:45;;;;;;;2.22;1.23;;;;;;;18.98;86.57;100266.72;4908956;29;20033;-81
2022/07/31 01:58:12;;;;;;;3.13;1.70;;;;;;;19.01;86.07;100262.97;4883839;29;20043;-82
2022/07/31 02:00:38;;;;;;;3.80;1.70;;;;;;;18.97;86.20;100269.50;4900540;29;20105;-81
2022/07/31 02:03:07;;;;;;;2.53;1.70;;;;;;;18.77;86.47;100237.53;4888550;29;20056;-82
2022/07/31 02:05:34;;;;;;;3.90;1.70;;;;;;;18.86;86.73;100255.84;4901865;29;20028;-82
2022/07/31 02:08:03;;;;;;;3.58;1.83;;;;;;;18.82;86.58;100263.25;4903073;29;20052;-82
2022/07/31 02:10:30;;;;;;;3.35;1.80;;;;;;;18.80;86.73;100261.59;4902420;29;20032;-82
2022/07/31 02:12:57;;;;;;;3.88;2.75;;;;;;;18.70;86.60;100241.59;4919866;29;20028;-81
2022/07/31 02:15:24;;;;;;;3.03;1.50;;;;;;;18.90;86.50;100268.16;4919597;29;20480;-82
2022/07/31 02:17:51;;;;;;;3.40;1.52;;;;;;;18.66;86.66;100231.97;4902633;29;20032;-82
2022/07/31 02:20:18;;;;;;;4.25;1.52;;;;;;;18.93;86.32;100265.31;4919943;29;20040;-81
2022/07/31 02:22:44;;;;;;;5.13;1.70;;;;;;;18.84;86.76;100265.84;4919816;29;20428;-81
2022/07/31 02:25:10;;;;;;;4.90;1.70;;;;;;;18.86;86.50;100263.94;4918891;29;20032;-81
2022/07/31 02:27:38;;;;;;;3.30;1.77;;;;;;;18.85;86.87;100267.56;4900852;29;20548;-82
2022/07/31 02:30:05;;;;;;;3.40;1.65;;;;;;;18.76;86.73;100269.03;4918404;29;20035;-82
2022/07/31 02:32:32;;;;;;;3.80;1.77;;;;;;;18.81;87.11;100275.03;4901327;29;20028;-82
2022/07/31 02:35:00;;;;;;;3.35;2.20;;;;;;;18.81;86.04;100245.38;4882686;29;20028;-81
2022/07/31 02:37:28;;;;;;;3.85;2.00;;;;;;;19.03;85.16;100261.03;4899769;29;20043;-82
2022/07/31 02:39:54;;;;;;;3.47;1.92;;;;;;;19.02;85.89;100259.31;4883120;29;20037;-82
2022/07/31 02:42:21;;;;;;;2.85;1.67;;;;;;;19.01;86.50;100262.97;4900755;29;20533;-81
2022/07/31 02:44:48;;;;;;;3.10;2.10;;;;;;;18.83;86.68;100247.97;4900831;29;20028;-82
2022/07/31 02:47:14;;;;;;;3.97;1.92;;;;;;;18.67;87.20;100236.38;4894148;29;20037;-81
2022/07/31 02:49:40;;;;;;;2.35;1.73;;;;;;;18.77;87.76;100259.97;4899192;29;20040;-81
2022/07/31 02:52:07;;;;;;;3.85;1.95;;;;;;;18.61;87.71;100239.47;4883610;29;20028;-82
2022/07/31 02:54:35;;;;;;;5.75;2.00;;;;;;;18.61;87.82;100258.31;4900579;29;20473;-81
2022/07/31 02:57:02;;;;;;;3.10;2.05;;;;;;;18.36;87.81;100226.59;4899952;29;20084;-82
2022/07/31 02:59:27;;;;;;;3.15;1.75;;;;;;;18.31;88.09;100226.91;4900394;29;20035;-81
2022/07/31 03:01:53;;;;;;;2.22;1.50;;;;;;;18.33;88.38;100245.66;4883039;29;20037;-82
2022/07/31 03:04:19;;;;;;;2.88;1.75;;;;;;;18.21;88.89;100231.09;4900193;29;20063;-82
2022/07/31 03:06:47;;;;;;;2.85;2.00;;;;;;;18.24;88.67;100240.81;4892107;29;20032;-82
2022/07/31 03:09:13;;;;;;;3.72;1.63;;;;;;;18.13;89.44;100225.31;4917428;29;20106;-81
2022/07/31 03:11:39;;;;;;;2.67;1.73;;;;;;;18.07;89.24;100216.75;4901707;29;20055;-82
2022/07/31 03:14:07;;;;;;;3.67;2.00;;;;;;;18.14;89.89;100227.03;4902271;29;20064;-82
2022/07/31 03:16:33;;;;;;;3.08;1.95;;;;;;;17.93;89.92;100204.09;4902315;29;20039;-82
2022/07/31 03:19:00;;;;;;;4.22;2.28;;;;;;;18.19;90.75;100256.38;4918771;29;20051;-81
2022/07/31 03:21:27;;;;;;;3.92;2.20;;;;;;;18.26;89.90;100257.75;4902423;29;20071;-83
2022/07/31 03:23:53;;;;;;;4.00;2.35;;;;;;;18.27;89.94;100254.94;4919274;29;20032;-82
2022/07/31 03:26:18;;;;;;;4.97;2.25;;;;;;;18.27;89.91;100254.06;4901954;29;20036;-82
2022/07/31 03:28:44;;;;;;;4.25;2.15;;;;;;;18.28;89.53;100251.31;4919358;29;20024;-82
2022/07/31 03:31:09;;;;;;;3.63;1.90;;;;;;;18.28;88.93;100261.22;4917790;29;20504;-82
2022/07/31 03:33:35;;;;;;;3.55;2.10;;;;;;;18.24;89.11;100248.88;4896800;29;20032;-83
2022/07/31 03:36:00;;;;;;;3.83;2.53;;;;;;;18.21;88.85;100228.41;4918765;29;20106;-82
2022/07/31 03:38:26;;;;;;;19.60;3.40;;;;;;;18.19;88.82;100233.00;4901479;29;20056;-82
2022/07/31 03:40:52;;;;;;;5.00;2.30;;;;;;;18.32;88.84;100251.97;4901872;29;20444;-83
2022/07/31 03:43:19;;;;;;;5.18;2.65;;;;;;;18.42;88.39;100257.72;4917401;29;20031;-82
2022/07/31 03:45:46;;;;;;;3.58;2.55;;;;;;;18.44;88.13;100258.47;4911839;29;20055;-82
2022/07/31 03:48:12;;;;;;;3.55;2.45;;;;;;;18.25;88.41;100235.31;4897544;29;20028;-82
2022/07/31 03:50:39;;;;;;;11.35;2.83;;;;;;;18.43;87.89;100259.44;4896785;29;20028;-82
2022/07/31 03:53:06;;;;;;;4.03;2.50;;;;;;;18.47;87.73;100255.63;4898559;29;20047;-82
2022/07/31 03:55:35;;;;;;;5.72;2.70;;;;;;;18.43;87.01;100238.78;4881820;29;20072;-82
2022/07/31 03:58:05;;;;;;;5.80;2.75;;;;;;;18.51;87.07;100257.16;4882329;29;20043;-83
2022/07/31 04:00:32;;;;;;;3.95;2.40;;;;;;;18.51;86.42;100243.69;4898858;29;20032;-82
2022/07/31 04:03:05;;;;;;;6.13;2.13;;;;;;;18.64;86.45;100260.81;4901178;29;20056;-82
2022/07/31 04:05:30;;;;;;;3.05;2.17;;;;;;;18.49;86.03;100229.44;4899432;29;20039;-81
2022/07/31 04:07:57;;;;;;;4.28;2.60;;;;;;;18.56;85.30;100238.88;4899724;29;20053;-82
2022/07/31 04:10:22;;;;;;;5.38;2.30;;;;;;;18.69;86.09;100250.63;4882101;29;20044;-82
2022/07/31 04:12:48;;;;;;;6.70;2.30;;;;;;;18.69;85.11;100245.25;4882682;29;20032;-82
2022/07/31 04:15:13;;;;;;;6.38;2.72;;;;;;;18.67;84.15;100233.69;4882360;29;20032;-82
2022/07/31 04:17:38;;;;;;;6.50;2.67;;;;;;;18.88;83.94;100260.16;4881374;29;20072;-81
2022/07/31 04:20:05;;;;;;;9.93;3.15;;;;;;;18.90;84.19;100260.06;4881692;29;20560;-82
2022/07/31 04:22:30;;;;;;;9.95;2.85;;;;;;;18.85;83.40;100237.94;4899267;29;20472;-82
2022/07/31 04:24:56;;;;;;;7.40;3.05;;;;;;;18.94;82.81;100242.75;4882134;29;20036;-82
2022/07/31 04:27:21;;;;;;;8.48;2.70;;;;;;;18.96;81.06;100232.75;4898922;29;20052;-83
2022/07/31 04:29:48;;;;;;;5.20;2.47;;;;;;;19.21;80.27;100267.94;4882045;29;20123;-82
2022/07/31 04:32:14;;;;;;;3.38;2.28;;;;;;;19.25;79.55;100245.22;4881501;29;20092;-83
2022/07/31 04:34:40;;;;;;;9.27;2.70;;;;;;;19.22;78.82;100251.69;4881793;29;20028;-83
2022/07/31 04:37:07;;;;;;;6.80;2.20;;;;;;;19.47;78.25;100272.59;4882274;29;20504;-83
2022/07/31 04:39:32;;;;;;;9.88;3.35;;;;;;;19.59;78.50;100267.25;4882098;29;20033;-82
2022/07/31 04:41:58;;;;;;;4.47;2.50;;;;;;;19.69;77.67;100274.78;4883050;29;20027;-82
2022/07/31 04:44:23;;;;;;;3.60;2.30;;;;;;;19.66;76.84;100248.81;4899579;29;20040;-83
2022/07/31 04:46:49;;;;;;;3.33;2.40;;;;;;;19.77;75.47;100248.97;4881766;29;20032;-82
2022/07/31 04:49:14;;;;;;;6.30;2.67;;;;;;;19.92;75.75;100269.56;4897664;29;20025;-82
2022/07/31 04:51:41;;;;;;;6.78;2.65;;;;;;;19.92;76.26;100264.16;4897609;29;20120;-82
2022/07/31 04:54:08;;;;;;;4.38;2.33;;;;;;;20.11;75.26;100286.28;4898020;29;20072;-82
2022/07/31 04:56:40;;;;;;;4.03;2.40;;;;;;;20.03;74.66;100272.41;4881198;29;20066;-82
2022/07/31 04:59:10;;;;;;;10.20;3.50;;;;;;;20.20;74.16;100282.97;4899999;29;20072;-83
2022/07/31 05:01:36;;;;;;;8.60;2.60;;;;;;;20.21;74.59;100282.03;4883852;29;20432;-83
2022/07/31 05:04:02;;;;;;;5.05;3.08;;;;;;;20.16;75.48;100267.09;4898715;29;20051;-83
2022/07/31 05:06:38;;;;;;;5.07;2.30;;;;;;;20.13;75.57;100267.25;4899107;29;20021;-83
2022/07/31 05:09:07;;;;;;;4.13;2.38;;;;;;;20.12;75.54;100266.38;4899402;29;20065;-83
2022/07/31 05:11:34;;;;;;;4.00;2.33;;;;;;;19.97;75.52;100248.50;4898151;29;20085;-83
2022/07/31 05:14:02;;;;;;;4.05;2.38;;;;;;;20.24;74.59;100287.22;4898554;29;20043;-83
2022/07/31 05:16:28;;;;;;;3.90;2.22;;;;;;;20.28;74.94;100282.47;4880435;29;20063;-83
2022/07/31 05:18:54;;;;;;;4.32;2.50;;;;;;;20.12;74.27;100252.88;4898358;29;20686;-83
2022/07/31 05:21:20;;;;;;;4.85;2.60;;;;;;;20.33;74.04;100275.75;4882049;29;20028;-83
2022/07/31 05:23:47;;;;;;;7.40;2.47;;;;;;;20.48;73.11;100279.25;4879057;29;20064;-82
2022/07/31 05:26:14;;;;;;;3.58;2.30;;;;;;;20.59;73.20;100277.53;4896675;29;20028;-83
2022/07/31 05:28:40;;;;;;;3.95;2.13;;;;;;;20.75;72.34;100282.75;4898509;29;20059;-83
2022/07/31 05:31:07;;;;;;;4.60;2.33;;;;;;;20.75;71.59;100261.13;4897284;29;20060;-83
2022/07/31 05:33:33;;;;;;;8.50;2.47;;;;;;;21.07;70.38;100275.09;4892817;29;20029;-83
2022/07/31 05:35:59;;;;;;;5.18;2.45;;;;;;;21.25;68.95;100281.91;4899276;29;20042;-83
2022/07/31 05:38:26;;;;;;;5.70;2.33;;;;;;;21.32;68.33;100273.22;4900542;29;20823;-83
2022/07/31 05:40:51;;;;;;;3.50;2.22;;;;;;;21.37;68.29;100243.97;4898815;29;20020;-83
2022/07/31 05:43:17;;;;;;;2.92;2.00;;;;;;;21.56;68.05;100254.31;4898711;29;20029;-83
2022/07/31 05:45:43;;;;;;;4.35;2.10;;;;;;;21.71;67.72;100259.44;4880476;29;20397;-83
2022/07/31 05:48:08;;;;;;;6.45;2.15;;;;;;;21.76;66.97;100261.84;4880222;29;20032;-83
2022/07/31 05:50:34;;;;;;;8.60;2.30;;;;;;;21.86;66.34;100268.34;4896928;29;20036;-83
2022/07/31 05:52:59;;;;;;;3.97;2.25;;;;;;;21.96;66.19;100269.34;4896407;29;20036;-82
2022/07/31 05:55:25;;;;;;;4.40;2.22;;;;;;;21.95;66.12;100284.75;4894381;29;20060;-82
2022/07/31 05:57:51;;;;;;;6.00;2.53;;;;;;;21.86;66.18;100262.91;4889293;29;20047;-83
2022/07/31 06:00:17;;;;;;;5.32;2.05;;;;;;;21.95;65.78;100256.78;4895167;29;20040;-83
2022/07/31 06:02:44;;;;;;;4.10;2.22;;;;;;;22.09;66.24;100264.75;4878690;29;20024;-83
2022/07/31 06:05:09;;;;;;;5.40;2.13;;;;;;;22.04;65.38;100248.84;4895823;29;20043;-83
2022/07/31 06:07:35;;;;;;;3.22;1.83;;;;;;;22.24;65.50;100279.00;4878574;29;20056;-83
2022/07/31 06:10:01;;;;;;;6.57;2.13;;;;;;;22.33;63.89;100262.88;4896336;29;20024;-83
2022/07/31 06:12:27;;;;;;;6.13;2.08;;;;;;;22.46;63.60;100274.50;4879645;29;20069;-82
2022/07/31 06:14:52;;;;;;;3.65;1.92;;;;;;;22.58;63.40;100272.72;4897229;29;20067;-84
2022/07/31 06:17:17;;;;;;;9.07;2.28;;;;;;;22.73;62.77;100266.09;4880233;29;20033;-83
2022/07/31 06:19:43;;;;;;;3.50;1.95;;;;;;;22.95;62.40;100267.00;4879417;29;20043;-83
2022/07/31 06:22:08;;;;;;;4.72;2.50;;;;;;;23.08;61.16;100265.03;4880241;29;20037;-83
2022/07/31 06:24:34;;;;;;;3.65;2.08;;;;;;;23.07;61.73;100248.88;4896994;29;20028;-83
2022/07/31 06:27:01;;;;;;;13.52;2.53;;;;;;;23.25;61.33;100280.84;4879334;29;20083;-83
2022/07/31 06:29:27;;;;;;;5.25;1.77;;;;;;;23.36;60.94;100264.56;4896862;29;20032;-83
2022/07/31 06:31:54;;;;;;;3.05;2.05;;;;;;;23.60;59.58;100268.97;4896219;29;20041;-82
2022/07/31 06:34:19;;;;;;;3.80;1.85;;;;;;;23.96;58.55;100276.81;4879844;29;20025;-84
2022/07/31 06:36:44;;;;;;;2.83;1.90;;;;;;;23.96;57.30;100250.50;4889292;29;20375;-83
2022/07/31 06:39:10;;;;;;;3.25;1.65;;;;;;;24.05;57.83;100255.19;4880722;29;20086;-83
2022/07/31 06:41:48;;;;;;;3.70;2.10;;;;;;;24.25;56.79;100269.84;4879377;29;20021;-83
2022/07/31 06:44:15;;;;;;;3.97;2.10;;;;;;;24.23;57.22;100258.22;4880306;29;20093;-83
2022/07/31 06:46:40;;;;;;;3.90;1.88;;;;;;;24.16;56.08;100248.84;4887514;29;20506;-83
2022/07/31 06:49:06;;;;;;;2.92;1.92;;;;;;;24.22;55.83;100259.19;4875464;29;20111;-84
2022/07/31 06:51:32;;;;;;;3.17;2.10;;;;;;;24.37;55.14;100264.19;4883653;29;20032;-84
2022/07/31 06:54:01;;;;;;;3.10;2.05;;;;;;;24.49;54.39;100273.16;4885115;29;20496;-83
2022/07/31 06:56:27;;;;;;;4.20;1.67;;;;;;;24.51;53.58;100263.88;4882538;29;20117;-83
2022/07/31 06:58:53;;;;;;;4.00;2.00;;;;;;;24.85;54.70;100267.28;4881997;29;20088;-83
2022/07/31 07:01:19;;;;;;;3.55;1.70;;;;;;;24.95;52.79;100268.22;4900635;29;20103;-84
2022/07/31 07:03:45;;;;;;;5.25;1.95;;;;;;;25.12;51.92;100278.50;4899960;29;20046;-84
2022/07/31 07:06:10;;;;;;;3.38;1.80;;;;;;;25.28;51.63;100276.13;4882470;29;20040;-83
2022/07/31 07:08:36;;;;;;;2.55;1.85;;;;;;;25.62;50.72;100280.28;4881412;29;20052;-83
2022/07/31 07:11:01;;;;;;;2.05;1.60;;;;;;;25.79;50.52;100267.88;4881100;29;20028;-83
2022/07/31 07:13:26;;;;;;;2.38;1.50;;;;;;;26.00;48.97;100262.31;4882506;29;20025;-83
2022/07/31 07:15:52;;;;;;;2.92;1.45;;;;;;;26.11;49.90;100254.03;4883147;29;20081;-83
2022/07/31 07:18:20;;;;;;;4.97;1.70;;;;;;;26.26;50.21;100250.72;4899637;29;20028;-83
2022/07/31 07:20:46;;;;;;;2.47;1.50;;;;;;;26.54;47.98;100251.75;4884887;29;20020;-83
2022/07/31 07:23:12;;;;;;;2.88;1.60;;;;;;;26.83;48.03;100268.94;4898830;29;20029;-84
2022/07/31 07:25:37;;;;;;;2.60;1.52;;;;;;;27.02;46.88;100258.84;4898700;29;20428;-82
2022/07/31 07:28:03;;;;;;;4.00;1.50;;;;;;;27.15;45.63;100269.44;4900105;29;20024;-83
2022/07/31 07:30:29;;;;;;;2.78;1.60;;;;;;;27.58;45.52;100266.97;4899716;29;20036;-83
2022/07/31 07:32:54;;;;;;;2.13;1.60;;;;;;;27.88;44.76;100255.72;4897923;29;20040;-83
2022/07/31 07:35:20;;;;;;;11.25;2.20;;;;;;;28.27;43.34;100276.34;4899972;29;20107;-83
2022/07/31 07:37:46;;;;;;;3.38;1.67;;;;;;;28.37;43.36;100260.72;4883041;29;20107;-83
2022/07/31 07:40:12;;;;;;;2.88;1.58;;;;;;;28.59;42.03;100272.22;4882261;29;20077;-83
2022/07/31 07:42:37;;;;;;;4.80;1.83;;;;;;;28.44;42.01;100245.38;4881821;29;20476;-84
2022/07/31 07:45:03;;;;;;;2.70;1.48;;;;;;;28.72;42.72;100245.28;4899526;29;20025;-83
2022/07/31 07:47:28;;;;;;;2.95;1.48;;;;;;;29.01;42.61;100254.91;4881191;29;20024;-82
2022/07/31 07:49:54;;;;;;;2.17;1.40;;;;;;;29.33;42.12;100235.09;4881126;29;20490;-83
2022/07/31 07:52:19;;;;;;;4.95;1.60;;;;;;;29.96;40.64;100235.53;4882303;29;20069;-83
2022/07/31 07:54:45;;;;;;;4.40;1.30;;;;;;;30.32;39.09;100257.06;4897868;29;20028;-83
2022/07/31 07:57:19;;;;;;;2.15;1.30;;;;;;;30.59;39.32;100240.25;4880927;29;20152;-83
2022/07/31 07:59:45;;;;;;;2.92;1.45;;;;;;;31.01;37.92;100239.22;4879872;29;20488;-83
2022/07/31 08:02:13;;;;;;;2.58;1.40;;;;;;;31.26;37.60;100238.13;4881601;29;20389;-83
2022/07/31 08:04:39;;;;;;;3.15;1.50;;;;;;;31.57;36.95;100244.56;4898388;29;20036;-83
2022/07/31 08:07:05;;;;;;;3.35;1.85;;;;;;;31.79;36.78;100254.78;4881204;29;20024;-83
2022/07/31 08:09:31;;;;;;;2.42;1.20;;;;;;;31.94;35.36;100256.63;4898092;29;20075;-84
2022/07/31 08:11:57;;;;;;;4.13;1.48;;;;;;;31.92;35.79;100252.34;4881089;29;20397;-83
2022/07/31 08:14:22;;;;;;;3.60;2.00;;;;;;;32.02;35.39;100241.97;4882154;29;20114;-84
2022/07/31 08:16:47;;;;;;;3.30;1.35;;;;;;;32.06;35.86;100246.06;4898635;29;20032;-83
2022/07/31 08:19:13;;;;;;;2.33;1.58;;;;;;;32.22;35.26;100245.09;4881042;29;20119;-83
2022/07/31 08:21:38;;;;;;;3.67;1.58;;;;;;;32.64;36.08;100242.72;4881605;29;20048;-83
2022/07/31 08:24:05;;;;;;;2.92;1.30;;;;;;;32.64;36.14;100242.72;4879708;29;20519;-84
2022/07/31 08:27:22;;;;;;;2.53;1.10;;;;;;;32.63;34.29;100230.00;4898333;29;20442;-83
2022/07/31 08:29:16;;;;;;;2.65;1.20;;;;;;;33.01;35.28;100240.03;4898222;29;20067;-84
2022/07/31 08:31:42;;;;;;;2.03;1.13;;;;;;;33.57;34.72;100246.81;4897805;29;20060;-84
2022/07/31 08:34:07;;;;;;;2.33;1.30;;;;;;;33.97;33.10;100238.03;4884824;29;20029;-84
2022/07/31 08:36:33;;;;;;;2.50;1.35;;;;;;;33.94;33.84;100227.38;4861996;29;20500;-83
2022/07/31 08:38:58;;;;;;;4.05;1.42;;;;;;;33.93;33.16;100233.94;4877050;29;20071;-84
2022/07/31 08:41:24;;;;;;;2.03;1.15;;;;;;;33.28;34.95;100214.53;4862073;29;20500;-84
2022/07/31 08:43:50;;;;;;;2.50;1.50;;;;;;;32.90;35.56;100235.81;4862198;29;20517;-83
2022/07/31 08:46:16;;;;;;;1.83;1.35;;;;;;;32.64;34.87;100229.81;4886463;29;20032;-84
2022/07/31 08:48:44;;;;;;;2.88;1.13;;;;;;;32.34;34.42;100230.72;4881014;29;20036;-84
2022/07/31 08:51:13;;;;;;;3.00;1.30;;;;;;;32.05;34.82;100219.59;4882284;29;20029;-84
2022/07/31 08:53:41;;;;;;;2.38;1.20;;;;;;;31.85;35.40;100229.31;4880740;29;20032;-83
2022/07/31 08:56:07;;;;;;;5.95;3.38;;;;;;;31.96;35.46;100227.03;4882465;29;20504;-83
2022/07/31 08:58:33;;;;;;;4.22;1.42;;;;;;;32.07;35.41;100223.03;4880751;29;20033;-83
2022/07/31 09:00:58;;;;;;;3.72;1.40;;;;;;;32.61;34.64;100210.91;4880484;29;20050;-83
2022/07/31 09:03:24;;;;;;;6.80;2.35;;;;;;;33.25;34.69;100218.53;4879795;29;20048;-83
2022/07/31 09:05:50;;;;;;;1.83;1.20;;;;;;;33.94;33.21;100216.34;4897046;29;20362;-84
2022/07/31 09:08:15;;;;;;;3.40;1.17;;;;;;;34.26;32.21;100210.31;4879771;29;20104;-83
2022/07/31 09:10:41;;;;;;;2.92;1.55;;;;;;;34.66;31.38;100200.50;4879571;29;20043;-83
2022/07/31 09:13:16;;;;;;;2.88;1.08;;;;;;;34.94;31.38;100218.88;4895475;29;20025;-84
2022/07/31 09:15:43;;;;;;;2.13;1.30;;;;;;;35.07;32.46;100216.19;4897179;29;20112;-83
2022/07/31 09:18:20;;;;;;;6.25;3.85;;;;;;;35.37;31.42;100212.09;4897007;29;20032;-83
2022/07/31 09:20:57;;;;;;;6.30;2.95;;;;;;;35.54;30.39;100213.50;4877090;29;20036;-84
2022/07/31 09:23:24;;;;;;;1.85;1.20;;;;;;;35.83;30.41;100203.19;4876911;29;20040;-83
2022/07/31 09:25:58;;;;;;;2.30;1.20;;;;;;;36.21;30.63;100209.94;4862747;29;20068;-84
2022/07/31 09:28:36;;;;;;;3.75;0.93;;;;;;;36.58;29.70;100212.16;4866258;29;20032;-83
2022/07/31 09:31:04;;;;;;;2.47;1.10;;;;;;;36.28;29.33;100185.88;4871083;29;20029;-83
2022/07/31 09:33:30;;;;;;;1.73;1.08;;;;;;;36.55;29.04;100195.94;4894983;29;20036;-84
2022/07/31 09:35:57;;;;;;;2.05;1.00;;;;;;;36.80;28.85;100210.94;4895650;29;20519;-85
2022/07/31 09:38:32;;;;;;;2.17;0.95;;;;;;;36.41;29.98;100194.25;4884853;29;20347;-84
2022/07/31 09:41:10;;;;;;;2.25;1.30;;;;;;;36.32;30.21;100195.47;4878011;29;20478;-85
2022/07/31 09:43:36;;;;;;;5.05;1.58;;;;;;;36.36;30.35;100196.81;4878851;29;20039;-84
2022/07/31 09:46:03;;;;;;;3.20;1.00;;;;;;;36.73;29.91;100193.41;4885249;29;20127;-84
2022/07/31 09:48:28;;;;;;;3.05;1.08;;;;;;;36.87;28.75;100195.16;4894767;29;20084;-84
2022/07/31 09:50:58;;;;;;;2.20;1.20;;;;;;;36.91;28.32;100211.13;4880259;29;20480;-85
2022/07/31 09:53:24;;;;;;;1.85;1.00;;;;;;;36.78;29.08;100185.28;4898872;29;20031;-84
2022/07/31 09:55:50;;;;;;;1.77;0.98;;;;;;;36.94;29.01;100184.88;4881037;29;20399;-85
2022/07/31 09:58:16;;;;;;;2.22;1.23;;;;;;;37.11;29.04;100188.03;4897464;29;20492;-85
2022/07/31 10:00:42;;;;;;;3.88;1.10;;;;;;;37.00;29.36;100189.56;4894562;29;20060;-84
2022/07/31 10:03:08;;;;;;;2.72;1.02;;;;;;;37.08;29.07;100181.03;4868681;29;20061;-84
2022/07/31 10:05:34;;;;;;;2.05;1.02;;;;;;;37.09;28.42;100181.84;4878564;29;20028;-84
2022/07/31 10:08:00;;;;;;;3.03;0.98;;;;;;;37.39;28.64;100167.31;4878732;29;20139;-83
2022/07/31 10:10:28;;;;;;;2.15;1.00;;;;;;;37.18;28.23;100181.44;4879266;29;20149;-84
2022/07/31 10:12:58;;;;;;;3.80;1.38;;;;;;;37.16;28.67;100182.69;4891719;29;20508;-84
2022/07/31 10:15:25;;;;;;;3.15;1.00;;;;;;;37.17;28.70;100179.69;4888728;29;20025;-83
2022/07/31 10:17:53;;;;;;;8.63;1.30;;;;;;;36.94;29.84;100176.53;4894128;29;20025;-83
2022/07/31 10:20:23;;;;;;;4.00;1.17;;;;;;;37.16;28.60;100166.03;4883823;29;20036;-84
2022/07/31 10:22:54;;;;;;;2.35;1.13;;;;;;;36.87;28.20;100167.41;4900987;29;20032;-84
2022/07/31 10:25:28;;;;;;;5.40;1.10;;;;;;;36.92;28.64;100179.53;4883724;29;20028;-84
2022/07/31 10:27:56;;;;;;;2.40;0.77;;;;;;;36.45;29.12;100176.13;4883014;29;20366;-83
2022/07/31 10:30:23;;;;;;;3.00;1.20;;;;;;;35.72;30.02;100163.97;4882920;29;20121;-84
2022/07/31 10:32:49;;;;;;;3.08;1.13;;;;;;;35.38;30.32;100161.28;4884066;29;20107;-84
2022/07/31 10:35:16;;;;;;;3.53;1.30;;;;;;;35.25;30.69;100174.16;4900151;29;20119;-84
2022/07/31 10:38:09;;;;;;;3.10;0.95;;;;;;;35.34;30.11;100162.72;4882099;29;20077;-84
2022/07/31 10:40:50;;;;;;;2.67;0.90;;;;;;;36.12;30.34;100144.72;4882022;29;20097;-84
2022/07/31 10:43:29;;;;;;;2.30;1.15;;;;;;;37.00;28.72;100156.28;4882951;29;20071;-84
2022/07/31 10:45:55;;;;;;;4.25;1.20;;;;;;;37.19;27.69;100147.03;4882619;29;20092;-84
2022/07/31 10:48:22;;;;;;;7.55;1.30;;;;;;;37.73;27.83;100136.41;4882425;29;20119;-83
2022/07/31 10:51:00;;;;;;;3.05;1.50;;;;;;;37.46;27.34;100140.38;4899810;29;20025;-83
2022/07/31 10:53:25;;;;;;;3.45;1.25;;;;;;;36.86;28.87;100140.72;4879889;29;20056;-84
2022/07/31 10:56:20;;;;;;;3.65;1.35;;;;;;;36.94;29.32;100141.34;4881241;29;20430;-83
2022/07/31 10:58:50;;;;;;;2.15;1.08;;;;;;;37.48;29.32;100142.94;4883364;29;20087;-83
2022/07/31 11:01:17;;;;;;;4.55;1.20;;;;;;;37.48;29.08;100132.66;4886716;29;20029;-84
2022/07/31 11:03:48;;;;;;;3.45;1.30;;;;;;;37.70;27.76;100125.75;4867941;29;20036;-85
2022/07/31 11:06:15;;;;;;;1.75;0.90;;;;;;;37.74;27.70;100127.03;4881542;29;20044;-85
2022/07/31 11:08:46;;;;;;;3.15;1.38;;;;;;;37.90;26.75;100126.50;4899184;29;20048;-85
2022/07/31 11:11:12;;;;;;;3.38;1.10;;;;;;;37.64;27.44;100120.19;4881977;29;20028;-85
2022/07/31 11:13:56;;;;;;;2.67;1.30;;;;;;;37.90;26.93;100129.28;4893589;29;20384;-85
2022/07/31 11:16:22;;;;;;;1.92;1.10;;;;;;;38.00;26.40;100114.88;4882411;29;20450;-83
2022/07/31 11:19:02;;;;;;;3.20;1.10;;;;;;;38.41;26.46;100117.16;4881015;29;20028;-84
2022/07/31 11:21:35;;;;;;;1.85;1.10;;;;;;;37.98;27.73;100112.34;4875282;29;20792;-85
2022/07/31 11:24:10;;;;;;;1.73;0.88;;;;;;;37.77;27.47;100097.94;4863571;29;20086;-84
2022/07/31 11:26:35;;;;;;;4.63;1.63;;;;;;;38.08;27.93;100106.28;4872766;29;20037;-84